sensor_id;sensor_type;location;lat;lon;timestamp;temperature;humidity
77582;DHT22;66726;52.388;9.986;2023-02-15T00:00:16;1.70;97.20
77582;DHT22;66726;52.388;9.986;2023-02-15T00:02:44;1.80;97.20
77582;DHT22;66726;52.388;9.986;2023-02-15T00:05:14;1.70;97.00
77582;DHT22;66726;52.388;9.986;2023-02-15T00:07:42;1.80;97.00
77582;DHT22;66726;52.388;9.986;2023-02-15T00:10:10;1.80;96.90
77582;DHT22;66726;52.388;9.986;2023-02-15T00:12:39;1.70;96.80
77582;DHT22;66726;52.388;9.986;2023-02-15T00:15:07;1.50;97.20
77582;DHT22;66726;52.388;9.986;2023-02-15T00:17:35;1.60;97.40
77582;DHT22;66726;52.388;9.986;2023-02-15T00:20:05;1.60;97.10
77582;DHT22;66726;52.388;9.986;2023-02-15T00:22:35;1.60;96.90
77582;DHT22;66726;52.388;9.986;2023-02-15T00:25:03;1.70;96.90
77582;DHT22;66726;52.388;9.986;2023-02-15T00:27:33;1.50;97.10
77582;DHT22;66726;52.388;9.986;2023-02-15T00:30:01;1.50;97.10
77582;DHT22;66726;52.388;9.986;2023-02-15T00:32:29;1.40;97.10
77582;DHT22;66726;52.388;9.986;2023-02-15T00:34:57;1.50;97.60
77582;DHT22;66726;52.388;9.986;2023-02-15T00:37:26;1.50;97.50
77582;DHT22;66726;52.388;9.986;2023-02-15T00:39:55;1.60;97.30
77582;DHT22;66726;52.388;9.986;2023-02-15T00:42:23;1.50;97.20
77582;DHT22;66726;52.388;9.986;2023-02-15T00:44:51;1.40;97.40
77582;DHT22;66726;52.388;9.986;2023-02-15T00:47:19;1.40;97.20
77582;DHT22;66726;52.388;9.986;2023-02-15T00:49:47;1.60;97.10
77582;DHT22;66726;52.388;9.986;2023-02-15T00:52:15;1.50;96.90
77582;DHT22;66726;52.388;9.986;2023-02-15T00:54:44;1.40;97.40
77582;DHT22;66726;52.388;9.986;2023-02-15T00:57:13;1.50;97.30
77582;DHT22;66726;52.388;9.986;2023-02-15T00:59:41;1.30;97.60
77582;DHT22;66726;52.388;9.986;2023-02-15T01:02:12;1.30;98.30
77582;DHT22;66726;52.388;9.986;2023-02-15T01:04:40;1.30;98.40
77582;DHT22;66726;52.388;9.986;2023-02-15T01:07:08;1.30;98.50
77582;DHT22;66726;52.388;9.986;2023-02-15T01:09:36;1.40;98.10
77582;DHT22;66726;52.388;9.986;2023-02-15T01:12:04;1.40;98.80
77582;DHT22;66726;52.388;9.986;2023-02-15T01:14:34;1.40;98.20
77582;DHT22;66726;52.388;9.986;2023-02-15T01:17:02;1.30;98.20
77582;DHT22;66726;52.388;9.986;2023-02-15T01:19:30;1.40;99.00
77582;DHT22;66726;52.388;9.986;2023-02-15T01:21:58;1.40;99.20
77582;DHT22;66726;52.388;9.986;2023-02-15T01:24:27;1.30;99.00
77582;DHT22;66726;52.388;9.986;2023-02-15T01:26:55;1.40;98.70
77582;DHT22;66726;52.388;9.986;2023-02-15T01:29:23;1.30;98.40
77582;DHT22;66726;52.388;9.986;2023-02-15T01:31:52;1.20;99.00
77582;DHT22;66726;52.388;9.986;2023-02-15T01:34:20;1.40;99.40
77582;DHT22;66726;52.388;9.986;2023-02-15T01:36:49;1.30;99.30
77582;DHT22;66726;52.388;9.986;2023-02-15T01:39:17;1.20;99.80
77582;DHT22;66726;52.388;9.986;2023-02-15T01:41:45;1.20;99.40
77582;DHT22;66726;52.388;9.986;2023-02-15T01:44:51;1.30;98.90
77582;DHT22;66726;52.388;9.986;2023-02-15T01:47:24;1.30;98.60
77582;DHT22;66726;52.388;9.986;2023-02-15T01:50:06;1.30;98.10
77582;DHT22;66726;52.388;9.986;2023-02-15T01:52:39;1.20;98.10
77582;DHT22;66726;52.388;9.986;2023-02-15T01:55:14;1.10;98.50
77582;DHT22;66726;52.388;9.986;2023-02-15T01:57:44;1.10;99.10
77582;DHT22;66726;52.388;9.986;2023-02-15T02:00:15;1.20;99.50
77582;DHT22;66726;52.388;9.986;2023-02-15T02:02:47;1.10;99.00
77582;DHT22;66726;52.388;9.986;2023-02-15T02:05:20;1.20;99.40
77582;DHT22;66726;52.388;9.986;2023-02-15T02:07:51;1.20;99.40
77582;DHT22;66726;52.388;9.986;2023-02-15T02:10:23;1.30;98.80
77582;DHT22;66726;52.388;9.986;2023-02-15T02:12:55;1.30;98.50
77582;DHT22;66726;52.388;9.986;2023-02-15T02:15:30;1.20;98.20
77582;DHT22;66726;52.388;9.986;2023-02-15T02:18:22;1.10;98.20
77582;DHT22;66726;52.388;9.986;2023-02-15T02:21:38;1.10;98.30
77582;DHT22;66726;52.388;9.986;2023-02-15T02:24:49;1.00;98.20
77582;DHT22;66726;52.388;9.986;2023-02-15T02:27:48;1.00;98.80
77582;DHT22;66726;52.388;9.986;2023-02-15T02:30:49;0.90;98.70
77582;DHT22;66726;52.388;9.986;2023-02-15T02:33:57;1.10;98.80
77582;DHT22;66726;52.388;9.986;2023-02-15T02:36:36;1.10;98.50
77582;DHT22;66726;52.388;9.986;2023-02-15T02:39:22;1.20;98.40
77582;DHT22;66726;52.388;9.986;2023-02-15T02:42:02;1.10;98.10
77582;DHT22;66726;52.388;9.986;2023-02-15T02:44:41;1.10;98.10
77582;DHT22;66726;52.388;9.986;2023-02-15T02:47:14;1.00;98.30
77582;DHT22;66726;52.388;9.986;2023-02-15T02:49:52;1.10;98.50
77582;DHT22;66726;52.388;9.986;2023-02-15T02:52:39;1.10;98.00
77582;DHT22;66726;52.388;9.986;2023-02-15T02:55:14;1.00;97.60
77582;DHT22;66726;52.388;9.986;2023-02-15T02:57:50;1.00;97.80
77582;DHT22;66726;52.388;9.986;2023-02-15T03:00:24;1.00;97.80
77582;DHT22;66726;52.388;9.986;2023-02-15T03:02:58;1.00;98.00
77582;DHT22;66726;52.388;9.986;2023-02-15T03:05:34;0.90;98.50
77582;DHT22;66726;52.388;9.986;2023-02-15T03:08:06;0.90;98.80
77582;DHT22;66726;52.388;9.986;2023-02-15T03:10:37;0.80;98.80
77582;DHT22;66726;52.388;9.986;2023-02-15T03:13:08;0.80;99.10
77582;DHT22;66726;52.388;9.986;2023-02-15T03:15:38;0.90;99.10
77582;DHT22;66726;52.388;9.986;2023-02-15T03:18:31;0.90;99.00
77582;DHT22;66726;52.388;9.986;2023-02-15T03:21:05;0.90;98.40
77582;DHT22;66726;52.388;9.986;2023-02-15T03:23:54;0.80;98.60
77582;DHT22;66726;52.388;9.986;2023-02-15T03:26:29;0.80;98.40
77582;DHT22;66726;52.388;9.986;2023-02-15T03:29:00;0.80;98.00
77582;DHT22;66726;52.388;9.986;2023-02-15T03:31:33;0.70;98.20
77582;DHT22;66726;52.388;9.986;2023-02-15T03:34:09;0.70;98.50
77582;DHT22;66726;52.388;9.986;2023-02-15T03:36:44;0.70;98.30
77582;DHT22;66726;52.388;9.986;2023-02-15T03:39:20;0.70;97.90
77582;DHT22;66726;52.388;9.986;2023-02-15T03:41:57;0.60;98.50
77582;DHT22;66726;52.388;9.986;2023-02-15T03:44:33;0.60;98.90
77582;DHT22;66726;52.388;9.986;2023-02-15T03:47:13;0.60;98.90
77582;DHT22;66726;52.388;9.986;2023-02-15T03:49:50;0.70;98.60
77582;DHT22;66726;52.388;9.986;2023-02-15T03:52:23;0.60;98.30
77582;DHT22;66726;52.388;9.986;2023-02-15T03:54:54;0.70;98.50
77582;DHT22;66726;52.388;9.986;2023-02-15T03:57:24;0.80;98.30
77582;DHT22;66726;52.388;9.986;2023-02-15T04:00:14;0.80;97.90
77582;DHT22;66726;52.388;9.986;2023-02-15T04:03:11;0.80;97.50
77582;DHT22;66726;52.388;9.986;2023-02-15T04:05:51;0.80;98.10
77582;DHT22;66726;52.388;9.986;2023-02-15T04:08:21;0.80;97.50
77582;DHT22;66726;52.388;9.986;2023-02-15T04:11:09;0.80;97.20
77582;DHT22;66726;52.388;9.986;2023-02-15T04:13:36;0.70;97.70
77582;DHT22;66726;52.388;9.986;2023-02-15T04:16:04;0.70;97.40
77582;DHT22;66726;52.388;9.986;2023-02-15T04:18:36;0.70;97.60
77582;DHT22;66726;52.388;9.986;2023-02-15T04:21:23;0.60;97.80
77582;DHT22;66726;52.388;9.986;2023-02-15T04:24:12;0.50;98.20
77582;DHT22;66726;52.388;9.986;2023-02-15T04:26:59;0.60;98.30
77582;DHT22;66726;52.388;9.986;2023-02-15T04:29:28;0.60;98.10
77582;DHT22;66726;52.388;9.986;2023-02-15T04:32:02;0.60;98.10
77582;DHT22;66726;52.388;9.986;2023-02-15T04:34:31;0.60;97.80
77582;DHT22;66726;52.388;9.986;2023-02-15T04:36:59;0.40;97.80
77582;DHT22;66726;52.388;9.986;2023-02-15T04:39:28;0.40;98.30
77582;DHT22;66726;52.388;9.986;2023-02-15T04:41:56;0.30;98.20
77582;DHT22;66726;52.388;9.986;2023-02-15T04:44:25;0.40;98.20
77582;DHT22;66726;52.388;9.986;2023-02-15T04:46:53;0.40;98.00
77582;DHT22;66726;52.388;9.986;2023-02-15T04:49:21;0.50;97.80
77582;DHT22;66726;52.388;9.986;2023-02-15T04:51:51;0.60;97.70
77582;DHT22;66726;52.388;9.986;2023-02-15T04:54:22;0.60;97.60
77582;DHT22;66726;52.388;9.986;2023-02-15T04:56:51;0.50;97.60
77582;DHT22;66726;52.388;9.986;2023-02-15T04:59:19;0.50;97.60
77582;DHT22;66726;52.388;9.986;2023-02-15T05:01:48;0.40;97.70
77582;DHT22;66726;52.388;9.986;2023-02-15T05:04:16;0.40;98.20
77582;DHT22;66726;52.388;9.986;2023-02-15T05:06:44;0.40;97.70
77582;DHT22;66726;52.388;9.986;2023-02-15T05:09:13;0.30;97.70
77582;DHT22;66726;52.388;9.986;2023-02-15T05:11:41;0.30;98.30
77582;DHT22;66726;52.388;9.986;2023-02-15T05:14:11;0.30;99.10
77582;DHT22;66726;52.388;9.986;2023-02-15T05:16:39;0.20;99.00
77582;DHT22;66726;52.388;9.986;2023-02-15T05:19:07;0.30;98.80
77582;DHT22;66726;52.388;9.986;2023-02-15T05:21:35;0.30;98.90
77582;DHT22;66726;52.388;9.986;2023-02-15T05:24:04;0.30;98.60
77582;DHT22;66726;52.388;9.986;2023-02-15T05:26:53;0.20;98.50
77582;DHT22;66726;52.388;9.986;2023-02-15T05:29:43;0.20;98.50
77582;DHT22;66726;52.388;9.986;2023-02-15T05:32:12;0.20;98.40
77582;DHT22;66726;52.388;9.986;2023-02-15T05:34:41;0.20;98.30
77582;DHT22;66726;52.388;9.986;2023-02-15T05:37:09;0.30;98.20
77582;DHT22;66726;52.388;9.986;2023-02-15T05:39:37;0.40;98.30
77582;DHT22;66726;52.388;9.986;2023-02-15T05:42:05;0.30;98.10
77582;DHT22;66726;52.388;9.986;2023-02-15T05:44:34;0.30;98.10
77582;DHT22;66726;52.388;9.986;2023-02-15T05:47:03;0.20;98.40
77582;DHT22;66726;52.388;9.986;2023-02-15T05:49:33;0.30;98.40
77582;DHT22;66726;52.388;9.986;2023-02-15T05:52:03;0.20;98.30
77582;DHT22;66726;52.388;9.986;2023-02-15T05:54:31;0.10;98.50
77582;DHT22;66726;52.388;9.986;2023-02-15T05:56:59;0.20;98.70
77582;DHT22;66726;52.388;9.986;2023-02-15T05:59:27;0.20;98.80
77582;DHT22;66726;52.388;9.986;2023-02-15T06:01:55;0.30;99.00
77582;DHT22;66726;52.388;9.986;2023-02-15T06:04:25;0.40;99.60
77582;DHT22;66726;52.388;9.986;2023-02-15T06:06:53;0.40;99.70
77582;DHT22;66726;52.388;9.986;2023-02-15T06:09:21;0.40;99.70
77582;DHT22;66726;52.388;9.986;2023-02-15T06:11:49;0.40;99.90
77582;DHT22;66726;52.388;9.986;2023-02-15T06:14:17;0.50;99.90
77582;DHT22;66726;52.388;9.986;2023-02-15T06:16:46;0.60;99.90
77582;DHT22;66726;52.388;9.986;2023-02-15T06:19:14;0.60;99.90
77582;DHT22;66726;52.388;9.986;2023-02-15T06:21:44;0.70;99.90
77582;DHT22;66726;52.388;9.986;2023-02-15T06:24:12;0.70;99.90
77582;DHT22;66726;52.388;9.986;2023-02-15T06:26:44;0.70;99.90
77582;DHT22;66726;52.388;9.986;2023-02-15T06:29:12;0.60;99.90
77582;DHT22;66726;52.388;9.986;2023-02-15T06:31:40;0.60;99.90
77582;DHT22;66726;52.388;9.986;2023-02-15T06:34:08;0.60;99.90
77582;DHT22;66726;52.388;9.986;2023-02-15T06:36:37;0.60;99.90
77582;DHT22;66726;52.388;9.986;2023-02-15T06:39:06;0.60;99.90
77582;DHT22;66726;52.388;9.986;2023-02-15T06:41:34;0.50;99.90
77582;DHT22;66726;52.388;9.986;2023-02-15T06:44:02;0.60;99.90
77582;DHT22;66726;52.388;9.986;2023-02-15T06:46:31;0.60;99.90
77582;DHT22;66726;52.388;9.986;2023-02-15T06:48:59;0.50;99.90
77582;DHT22;66726;52.388;9.986;2023-02-15T06:51:27;0.50;99.90
77582;DHT22;66726;52.388;9.986;2023-02-15T06:53:55;0.50;99.90
77582;DHT22;66726;52.388;9.986;2023-02-15T06:56:25;0.50;99.90
77582;DHT22;66726;52.388;9.986;2023-02-15T06:58:53;0.50;99.90
77582;DHT22;66726;52.388;9.986;2023-02-15T07:01:24;0.60;99.90
77582;DHT22;66726;52.388;9.986;2023-02-15T07:03:52;0.50;99.90
77582;DHT22;66726;52.388;9.986;2023-02-15T07:06:20;0.50;99.90
77582;DHT22;66726;52.388;9.986;2023-02-15T07:08:48;0.50;99.90
77582;DHT22;66726;52.388;9.986;2023-02-15T07:11:17;0.50;99.90
77582;DHT22;66726;52.388;9.986;2023-02-15T07:14:04;0.50;99.90
77582;DHT22;66726;52.388;9.986;2023-02-15T07:16:32;0.50;99.90
77582;DHT22;66726;52.388;9.986;2023-02-15T07:19:00;0.50;99.90
77582;DHT22;66726;52.388;9.986;2023-02-15T07:21:28;0.50;99.90
77582;DHT22;66726;52.388;9.986;2023-02-15T07:23:57;0.60;99.90
77582;DHT22;66726;52.388;9.986;2023-02-15T07:26:25;0.60;99.90
77582;DHT22;66726;52.388;9.986;2023-02-15T07:28:54;0.60;99.90
77582;DHT22;66726;52.388;9.986;2023-02-15T07:31:24;0.60;99.90
77582;DHT22;66726;52.388;9.986;2023-02-15T07:33:52;0.60;99.90
77582;DHT22;66726;52.388;9.986;2023-02-15T07:36:21;0.60;99.90
77582;DHT22;66726;52.388;9.986;2023-02-15T07:38:49;0.60;99.90
77582;DHT22;66726;52.388;9.986;2023-02-15T07:41:17;0.70;99.90
77582;DHT22;66726;52.388;9.986;2023-02-15T07:43:45;0.70;99.90
77582;DHT22;66726;52.388;9.986;2023-02-15T07:46:14;0.80;99.90
77582;DHT22;66726;52.388;9.986;2023-02-15T07:48:46;0.80;99.90
77582;DHT22;66726;52.388;9.986;2023-02-15T07:51:14;0.80;99.90
77582;DHT22;66726;52.388;9.986;2023-02-15T07:53:43;0.90;99.90
77582;DHT22;66726;52.388;9.986;2023-02-15T07:56:12;0.90;99.90
77582;DHT22;66726;52.388;9.986;2023-02-15T07:58:41;1.00;99.90
77582;DHT22;66726;52.388;9.986;2023-02-15T08:01:20;1.00;99.90
77582;DHT22;66726;52.388;9.986;2023-02-15T08:03:52;1.10;99.90
77582;DHT22;66726;52.388;9.986;2023-02-15T08:06:21;1.30;99.90
77582;DHT22;66726;52.388;9.986;2023-02-15T08:08:50;1.40;99.90
77582;DHT22;66726;52.388;9.986;2023-02-15T08:11:21;1.50;99.90
77582;DHT22;66726;52.388;9.986;2023-02-15T08:13:56;1.50;99.90
77582;DHT22;66726;52.388;9.986;2023-02-15T08:16:29;1.60;99.90
77582;DHT22;66726;52.388;9.986;2023-02-15T08:19:02;1.70;99.90
77582;DHT22;66726;52.388;9.986;2023-02-15T08:21:33;1.70;99.90
77582;DHT22;66726;52.388;9.986;2023-02-15T08:24:04;1.70;99.90
77582;DHT22;66726;52.388;9.986;2023-02-15T08:26:34;1.80;99.90
77582;DHT22;66726;52.388;9.986;2023-02-15T08:29:03;1.80;99.90
77582;DHT22;66726;52.388;9.986;2023-02-15T08:31:33;1.90;99.90
77582;DHT22;66726;52.388;9.986;2023-02-15T08:34:05;1.90;99.90
77582;DHT22;66726;52.388;9.986;2023-02-15T08:36:33;2.10;99.90
77582;DHT22;66726;52.388;9.986;2023-02-15T08:39:04;2.10;99.90
77582;DHT22;66726;52.388;9.986;2023-02-15T08:41:34;2.10;99.90
77582;DHT22;66726;52.388;9.986;2023-02-15T08:44:05;2.10;99.90
77582;DHT22;66726;52.388;9.986;2023-02-15T08:46:36;2.10;99.90
77582;DHT22;66726;52.388;9.986;2023-02-15T08:49:08;2.20;99.90
77582;DHT22;66726;52.388;9.986;2023-02-15T08:51:37;2.30;99.90
77582;DHT22;66726;52.388;9.986;2023-02-15T08:54:08;2.50;99.90
77582;DHT22;66726;52.388;9.986;2023-02-15T08:56:41;2.60;99.90
77582;DHT22;66726;52.388;9.986;2023-02-15T08:59:13;2.70;99.90
77582;DHT22;66726;52.388;9.986;2023-02-15T09:01:43;2.80;99.90
77582;DHT22;66726;52.388;9.986;2023-02-15T09:04:13;3.00;99.60
77582;DHT22;66726;52.388;9.986;2023-02-15T09:06:43;3.10;99.10
77582;DHT22;66726;52.388;9.986;2023-02-15T09:09:14;3.20;98.80
77582;DHT22;66726;52.388;9.986;2023-02-15T09:11:45;3.40;98.80
77582;DHT22;66726;52.388;9.986;2023-02-15T09:14:16;3.50;98.60
77582;DHT22;66726;52.388;9.986;2023-02-15T09:16:47;3.60;98.10
77582;DHT22;66726;52.388;9.986;2023-02-15T09:19:20;3.60;97.90
77582;DHT22;66726;52.388;9.986;2023-02-15T09:21:49;3.60;98.40
77582;DHT22;66726;52.388;9.986;2023-02-15T09:24:18;3.70;97.60
77582;DHT22;66726;52.388;9.986;2023-02-15T09:26:47;3.80;97.30
77582;DHT22;66726;52.388;9.986;2023-02-15T09:29:17;3.90;97.40
77582;DHT22;66726;52.388;9.986;2023-02-15T09:31:48;3.90;97.40
77582;DHT22;66726;52.388;9.986;2023-02-15T09:34:21;4.10;97.60
77582;DHT22;66726;52.388;9.986;2023-02-15T09:36:50;4.20;97.00
77582;DHT22;66726;52.388;9.986;2023-02-15T09:39:20;4.20;96.50
77582;DHT22;66726;52.388;9.986;2023-02-15T09:48:35;4.10;96.20
77582;DHT22;66726;52.388;9.986;2023-02-15T09:51:35;4.20;96.40
77582;DHT22;66726;52.388;9.986;2023-02-15T09:54:22;4.20;96.20
77582;DHT22;66726;52.388;9.986;2023-02-15T09:57:10;4.30;95.60
77582;DHT22;66726;52.388;9.986;2023-02-15T09:59:54;4.50;95.60
77582;DHT22;66726;52.388;9.986;2023-02-15T10:02:43;4.60;95.30
77582;DHT22;66726;52.388;9.986;2023-02-15T10:05:28;4.60;94.70
77582;DHT22;66726;52.388;9.986;2023-02-15T10:11:15;4.90;94.80
77582;DHT22;66726;52.388;9.986;2023-02-15T10:14:43;5.10;94.20
77582;DHT22;66726;52.388;9.986;2023-02-15T10:17:33;5.00;93.60
77582;DHT22;66726;52.388;9.986;2023-02-15T10:20:20;5.30;93.90
77582;DHT22;66726;52.388;9.986;2023-02-15T10:23:17;5.30;93.50
77582;DHT22;66726;52.388;9.986;2023-02-15T10:26:04;5.50;93.30
77582;DHT22;66726;52.388;9.986;2023-02-15T10:28:45;5.50;93.80
77582;DHT22;66726;52.388;9.986;2023-02-15T10:31:23;5.50;93.50
77582;DHT22;66726;52.388;9.986;2023-02-15T10:34:11;5.60;93.70
77582;DHT22;66726;52.388;9.986;2023-02-15T10:37:04;5.60;94.00
77582;DHT22;66726;52.388;9.986;2023-02-15T10:39:58;5.50;94.40
77582;DHT22;66726;52.388;9.986;2023-02-15T10:42:49;5.70;94.00
77582;DHT22;66726;52.388;9.986;2023-02-15T10:45:33;5.90;93.10
77582;DHT22;66726;52.388;9.986;2023-02-15T10:51:26;6.10;92.20
77582;DHT22;66726;52.388;9.986;2023-02-15T10:54:09;6.20;92.20
77582;DHT22;66726;52.388;9.986;2023-02-15T10:56:52;6.30;91.60
77582;DHT22;66726;52.388;9.986;2023-02-15T10:59:42;6.40;91.60
77582;DHT22;66726;52.388;9.986;2023-02-15T11:02:25;6.40;92.00
77582;DHT22;66726;52.388;9.986;2023-02-15T11:08:11;6.60;91.50
77582;DHT22;66726;52.388;9.986;2023-02-15T11:10:43;6.70;91.10
77582;DHT22;66726;52.388;9.986;2023-02-15T11:13:17;6.80;91.00
77582;DHT22;66726;52.388;9.986;2023-02-15T11:15:51;6.80;90.30
77582;DHT22;66726;52.388;9.986;2023-02-15T11:18:25;6.90;90.60
77582;DHT22;66726;52.388;9.986;2023-02-15T11:21:03;7.10;90.60
77582;DHT22;66726;52.388;9.986;2023-02-15T11:23:42;7.20;90.00
77582;DHT22;66726;52.388;9.986;2023-02-15T11:26:15;7.20;90.40
77582;DHT22;66726;52.388;9.986;2023-02-15T11:28:52;7.20;89.70
77582;DHT22;66726;52.388;9.986;2023-02-15T11:31:26;7.20;90.00
77582;DHT22;66726;52.388;9.986;2023-02-15T11:34:10;7.20;91.30
77582;DHT22;66726;52.388;9.986;2023-02-15T11:36:43;7.30;90.10
77582;DHT22;66726;52.388;9.986;2023-02-15T11:39:16;7.30;89.50
77582;DHT22;66726;52.388;9.986;2023-02-15T11:41:49;7.40;88.60
77582;DHT22;66726;52.388;9.986;2023-02-15T11:44:26;7.40;89.00
77582;DHT22;66726;52.388;9.986;2023-02-15T11:46:59;7.50;89.80
77582;DHT22;66726;52.388;9.986;2023-02-15T11:49:30;7.70;90.00
77582;DHT22;66726;52.388;9.986;2023-02-15T11:52:02;7.70;90.10
77582;DHT22;66726;52.388;9.986;2023-02-15T11:54:36;7.80;90.40
77582;DHT22;66726;52.388;9.986;2023-02-15T11:57:14;8.00;88.10
77582;DHT22;66726;52.388;9.986;2023-02-15T11:59:53;8.10;88.30
77582;DHT22;66726;52.388;9.986;2023-02-15T12:02:26;8.20;88.50
77582;DHT22;66726;52.388;9.986;2023-02-15T12:04:58;8.30;88.70
77582;DHT22;66726;52.388;9.986;2023-02-15T12:07:34;8.30;87.90
77582;DHT22;66726;52.388;9.986;2023-02-15T12:10:17;8.30;90.00
77582;DHT22;66726;52.388;9.986;2023-02-15T12:12:47;8.50;86.90
77582;DHT22;66726;52.388;9.986;2023-02-15T12:15:30;8.80;87.10
77582;DHT22;66726;52.388;9.986;2023-02-15T12:18:01;8.90;87.10
77582;DHT22;66726;52.388;9.986;2023-02-15T12:20:32;9.10;86.10
77582;DHT22;66726;52.388;9.986;2023-02-15T12:23:03;9.10;85.70
77582;DHT22;66726;52.388;9.986;2023-02-15T12:25:36;9.00;87.00
77582;DHT22;66726;52.388;9.986;2023-02-15T12:28:23;9.10;85.90
77582;DHT22;66726;52.388;9.986;2023-02-15T12:30:56;9.30;84.30
77582;DHT22;66726;52.388;9.986;2023-02-15T12:33:28;9.20;84.90
77582;DHT22;66726;52.388;9.986;2023-02-15T12:36:01;9.30;86.40
77582;DHT22;66726;52.388;9.986;2023-02-15T12:38:32;9.40;85.90
77582;DHT22;66726;52.388;9.986;2023-02-15T12:41:02;9.50;85.20
77582;DHT22;66726;52.388;9.986;2023-02-15T12:43:34;9.40;85.20
77582;DHT22;66726;52.388;9.986;2023-02-15T12:46:24;9.50;82.20
77582;DHT22;66726;52.388;9.986;2023-02-15T12:49:07;9.50;85.50
77582;DHT22;66726;52.388;9.986;2023-02-15T12:51:48;9.70;84.50
77582;DHT22;66726;52.388;9.986;2023-02-15T12:54:28;9.70;82.10
77582;DHT22;66726;52.388;9.986;2023-02-15T12:56:59;9.50;81.20
77582;DHT22;66726;52.388;9.986;2023-02-15T12:59:48;9.50;82.40
77582;DHT22;66726;52.388;9.986;2023-02-15T13:02:23;9.60;83.50
77582;DHT22;66726;52.388;9.986;2023-02-15T13:04:56;9.60;84.10
77582;DHT22;66726;52.388;9.986;2023-02-15T13:07:32;9.70;82.10
77582;DHT22;66726;52.388;9.986;2023-02-15T13:10:01;9.70;81.60
77582;DHT22;66726;52.388;9.986;2023-02-15T13:12:30;9.90;82.40
77582;DHT22;66726;52.388;9.986;2023-02-15T13:15:00;9.90;79.90
77582;DHT22;66726;52.388;9.986;2023-02-15T13:17:32;10.10;80.60
77582;DHT22;66726;52.388;9.986;2023-02-15T13:20:04;10.20;80.00
77582;DHT22;66726;52.388;9.986;2023-02-15T13:22:38;10.00;77.30
77582;DHT22;66726;52.388;9.986;2023-02-15T13:25:14;10.10;78.50
77582;DHT22;66726;52.388;9.986;2023-02-15T13:27:51;9.90;80.70
77582;DHT22;66726;52.388;9.986;2023-02-15T13:30:24;10.20;81.50
77582;DHT22;66726;52.388;9.986;2023-02-15T13:33:00;10.40;80.30
77582;DHT22;66726;52.388;9.986;2023-02-15T13:35:38;10.50;78.60
77582;DHT22;66726;52.388;9.986;2023-02-15T13:38:26;10.60;75.90
77582;DHT22;66726;52.388;9.986;2023-02-15T13:41:13;10.70;76.50
77582;DHT22;66726;52.388;9.986;2023-02-15T13:43:52;10.70;78.10
77582;DHT22;66726;52.388;9.986;2023-02-15T13:46:38;10.80;78.30
77582;DHT22;66726;52.388;9.986;2023-02-15T13:49:45;10.70;77.90
77582;DHT22;66726;52.388;9.986;2023-02-15T13:52:24;10.50;78.40
77582;DHT22;66726;52.388;9.986;2023-02-15T13:55:13;10.40;79.20
77582;DHT22;66726;52.388;9.986;2023-02-15T13:58:14;10.40;77.50
77582;DHT22;66726;52.388;9.986;2023-02-15T14:01:01;10.40;78.00
77582;DHT22;66726;52.388;9.986;2023-02-15T14:03:56;10.50;78.80
77582;DHT22;66726;52.388;9.986;2023-02-15T14:09:49;10.60;77.70
77582;DHT22;66726;52.388;9.986;2023-02-15T14:12:37;10.40;76.30
77582;DHT22;66726;52.388;9.986;2023-02-15T14:15:26;10.20;78.10
77582;DHT22;66726;52.388;9.986;2023-02-15T14:18:07;10.00;77.30
77582;DHT22;66726;52.388;9.986;2023-02-15T14:20:51;10.10;80.70
77582;DHT22;66726;52.388;9.986;2023-02-15T14:23:41;10.20;80.10
77582;DHT22;66726;52.388;9.986;2023-02-15T14:26:24;10.30;76.80
77582;DHT22;66726;52.388;9.986;2023-02-15T14:29:07;10.20;77.20
77582;DHT22;66726;52.388;9.986;2023-02-15T14:31:56;10.20;76.30
77582;DHT22;66726;52.388;9.986;2023-02-15T14:34:30;10.10;76.10
77582;DHT22;66726;52.388;9.986;2023-02-15T14:37:11;10.00;75.50
77582;DHT22;66726;52.388;9.986;2023-02-15T14:39:52;9.90;75.90
77582;DHT22;66726;52.388;9.986;2023-02-15T14:42:50;9.90;78.90
77582;DHT22;66726;52.388;9.986;2023-02-15T14:45:28;9.90;78.60
77582;DHT22;66726;52.388;9.986;2023-02-15T14:48:09;9.70;76.90
77582;DHT22;66726;52.388;9.986;2023-02-15T14:50:45;9.60;79.00
77582;DHT22;66726;52.388;9.986;2023-02-15T14:53:36;9.70;78.90
77582;DHT22;66726;52.388;9.986;2023-02-15T14:56:15;9.70;78.40
77582;DHT22;66726;52.388;9.986;2023-02-15T14:59:18;9.60;80.10
77582;DHT22;66726;52.388;9.986;2023-02-15T15:01:55;9.50;79.50
77582;DHT22;66726;52.388;9.986;2023-02-15T15:04:29;9.40;81.20
77582;DHT22;66726;52.388;9.986;2023-02-15T15:07:07;9.40;81.20
77582;DHT22;66726;52.388;9.986;2023-02-15T15:09:43;9.40;81.10
77582;DHT22;66726;52.388;9.986;2023-02-15T15:12:38;9.40;82.10
77582;DHT22;66726;52.388;9.986;2023-02-15T15:15:12;9.50;81.00
77582;DHT22;66726;52.388;9.986;2023-02-15T15:17:58;9.40;81.80
77582;DHT22;66726;52.388;9.986;2023-02-15T15:20:41;9.30;81.20
77582;DHT22;66726;52.388;9.986;2023-02-15T15:26:36;9.40;81.80
77582;DHT22;66726;52.388;9.986;2023-02-15T15:29:08;9.40;82.40
77582;DHT22;66726;52.388;9.986;2023-02-15T15:31:49;9.40;81.60
77582;DHT22;66726;52.388;9.986;2023-02-15T15:34:45;9.30;82.00
77582;DHT22;66726;52.388;9.986;2023-02-15T15:37:47;9.30;82.70
77582;DHT22;66726;52.388;9.986;2023-02-15T15:40:41;9.30;83.00
77582;DHT22;66726;52.388;9.986;2023-02-15T15:43:54;9.20;83.00
77582;DHT22;66726;52.388;9.986;2023-02-15T15:46:52;9.10;83.10
77582;DHT22;66726;52.388;9.986;2023-02-15T15:49:43;9.00;82.60
77582;DHT22;66726;52.388;9.986;2023-02-15T15:52:14;8.90;83.40
77582;DHT22;66726;52.388;9.986;2023-02-15T15:54:45;8.80;83.80
77582;DHT22;66726;52.388;9.986;2023-02-15T15:57:19;8.80;83.80
77582;DHT22;66726;52.388;9.986;2023-02-15T15:59:53;8.70;83.90
77582;DHT22;66726;52.388;9.986;2023-02-15T16:02:25;8.70;84.80
77582;DHT22;66726;52.388;9.986;2023-02-15T16:05:06;8.70;85.00
77582;DHT22;66726;52.388;9.986;2023-02-15T16:07:34;8.60;85.40
77582;DHT22;66726;52.388;9.986;2023-02-15T16:10:05;8.50;86.00
77582;DHT22;66726;52.388;9.986;2023-02-15T16:12:35;8.50;86.50
77582;DHT22;66726;52.388;9.986;2023-02-15T16:15:15;8.40;87.00
77582;DHT22;66726;52.388;9.986;2023-02-15T16:17:49;8.40;87.10
77582;DHT22;66726;52.388;9.986;2023-02-15T16:20:23;8.40;87.40
77582;DHT22;66726;52.388;9.986;2023-02-15T16:23:00;8.30;87.60
77582;DHT22;66726;52.388;9.986;2023-02-15T16:25:46;8.20;88.10
77582;DHT22;66726;52.388;9.986;2023-02-15T16:28:22;8.10;88.70
77582;DHT22;66726;52.388;9.986;2023-02-15T16:31:04;7.90;89.00
77582;DHT22;66726;52.388;9.986;2023-02-15T16:33:41;7.90;89.90
77582;DHT22;66726;52.388;9.986;2023-02-15T16:36:13;7.80;89.80
77582;DHT22;66726;52.388;9.986;2023-02-15T16:39:19;7.70;90.00
77582;DHT22;66726;52.388;9.986;2023-02-15T16:41:48;7.60;90.40
77582;DHT22;66726;52.388;9.986;2023-02-15T16:44:22;7.60;90.60
77582;DHT22;66726;52.388;9.986;2023-02-15T16:46:51;7.50;90.40
77582;DHT22;66726;52.388;9.986;2023-02-15T16:49:25;7.50;90.50
77582;DHT22;66726;52.388;9.986;2023-02-15T16:51:57;7.50;90.60
77582;DHT22;66726;52.388;9.986;2023-02-15T16:54:29;7.50;90.40
77582;DHT22;66726;52.388;9.986;2023-02-15T16:56:59;7.60;90.40
77582;DHT22;66726;52.388;9.986;2023-02-15T16:59:31;7.50;90.40